Whitewater, Missouri
Current Conditions -  °F | °C
As of 8:53 AM on Saturday 22 Nov 2014 (Local Time) from KCGI Reporting Station
Light Rain Light Rain  
Wind Chill: 51°   Ceiling: 5500
Heat Index: 51°   Visibility: 5mi
Dew Point: 47°   Wind: 8mph
Humidity: 86%   Direction: 160°SSE
Pressure: 30.22"   Gusts: NA
Location:  37.24°N, 89.8°W
Report Text: KCGI 221453Z 16007KT 5SM -RA BR OVC055 11/08 A3022 RMK AO2 RAB02 SLP233 P0002 60002 T01060083 58003
Loading
Personal Weather Stations






























Interactive Weather Map New forecast layout! Learn more

10-Day Weather Forecast

Advertisements
Track Severe Weather on mobile